• Join FlightAware (Why Join?)
  • Login
  • US Flag 
11:55PM EDT


 

Airport Tracker/Info


-or-


 

Live Flight TrackerFlight Track Log ✈ UAL4563 ✈ 02-May-2013 ✈ KCLE - KMHT

Flight Track Log - Related Links

Times and Time Zones

All times are in EDT time to prevent confusion due to time zone crossing. See the UAL4563 flight status page for this flight to view local times or setup timezone preferences in your user account.

Time Position Orientation Groundspeed Altitude Reporting Facility
EDT Latitude Longitude Course Direction KTS MPH feet Rate Location/Type
07:06PM 41.4194 -81.8458 25° Northeast 176 203 1,600  Level Cleveland Center
07:07PM 41.4844 -81.8056 25° Northeast 250 288 3,600 1,800 Climbing Cleveland Center
07:08PM 41.5306 -81.7675 32° Northeast 274 315 5,300 2,280 Climbing Cleveland Center
07:09PM 41.5917 -81.6992 40° Northeast 274 315 7,800 2,280 Climbing Cleveland Center
07:10PM 41.6531 -81.6281 41° Northeast 280 322 9,900 1,560 Climbing Cleveland Center
07:11PM 41.7225 -81.5514 39° Northeast 298 343 11,000 1,020 Climbing Cleveland Center
07:12PM 41.7981 -81.4661 40° Northeast 333 383 12,000 900 Climbing Cleveland Center
07:13PM 41.8492 -81.3442 61° Northeast 347 399 12,900 1,200 Climbing Cleveland Center
07:14PM 41.8708 -81.2078 78° East 367 422 14,400 1,440 Climbing Cleveland Center
07:15PM 41.8964 -81.0686 76° East 373 429 15,800 1,200 Climbing Cleveland Center
07:16PM 41.9136 -80.9431 80° East 373 429 16,900 1,140 Climbing Cleveland Center
07:17PM 41.9347 -80.8064 78° East 373 429 18,100 1,200 Climbing Cleveland Center
07:18PM 41.9578 -80.6669 77° East 373 429 19,400 1,140 Climbing Cleveland Center
07:19PM 41.9808 -80.5272 77° East 380 437 20,400 960 Climbing Cleveland Center
07:20PM 42.0056 -80.3792 77° East 394 453 21,400 960 Climbing Cleveland Center
07:22PM 42.0525 -80.0603 79° East 401 461 23,400 960 Climbing Cleveland Center
07:23PM 42.0747 -79.9089 79° East 408 470 24,400 960 Climbing Cleveland Center
07:24PM 42.0986 -79.7519 78° East 408 470 25,400 960 Climbing Cleveland Center
07:25PM 42.1206 -79.5978 79° East 414 476 26,400 900 Climbing Cleveland Center
07:26PM 42.1442 -79.4433 78° East 414 476 27,300 900 Climbing Cleveland Center
07:27PM 42.1633 -79.2889 80° East 409 471 28,300 960 Climbing Cleveland Center
07:28PM 42.1864 -79.1372 78° East 409 471 29,300 960 Climbing Cleveland Center
07:29PM 42.2053 -78.9825 81° East 409 471 30,300 840 Climbing Cleveland Center
07:30PM 42.2281 -78.8278 79° East 409 471 31,000 300 Climbing Cleveland Center
07:31PM 42.2464 -78.6647 81° East 416 479 31,000  Level Cleveland Center
07:32PM 42.2683 -78.4956 80° East 436 502 31,000  Level Cleveland Center
07:33PM 42.2881 -78.3294 81° East 449 517 31,000  Level Cleveland Center
07:34PM 42.3081 -78.1742 80° East 456 525 31,000  Level Cleveland Center
07:35PM 42.3292 -78.0047 80° East 456 525 31,000 360 Level Cleveland Center
07:36PM 42.3483 -77.8383 81° East 451 519 31,800 900 Climbing Cleveland Center
07:37PM 42.3692 -77.6714 80° East 451 519 32,900 1,140 Climbing Cleveland Center
07:38PM 42.3858 -77.5078 82° East 446 513 34,100 1,020 Climbing Cleveland Center
07:39PM 42.4042 -77.3436 81° East 441 507 35,000 240 Climbing Cleveland Center
07:41PM 42.4461 -76.9539 82° East 440 506 35,000  Level Boston Center
07:42PM 42.4650 -76.7892 81° East 440 506 35,000  Level Boston Center
07:43PM 42.4839 -76.6214 81° East 440 506 35,000  Level Boston Center
07:44PM 42.5003 -76.4536 82° East 445 512 35,000  Level Boston Center
07:45PM 42.5186 -76.2856 82° East 445 512 35,000  Level Boston Center
07:46PM 42.5394 -76.1008 81° East 445 512 35,000 -60 Level Boston Center
07:47PM 42.5550 -75.9325 83° East 445 512 34,900  Descending Boston Center
07:48PM 42.5706 -75.7669 83° East 445 512 35,000  Climbing Boston Center
07:49PM 42.5858 -75.5986 83° East 445 512 35,000 -360 Level Boston Center
07:50PM 42.6028 -75.4358 82° East 445 512 34,300 -1,020 Descending Boston Center
07:51PM 42.6172 -75.2758 83° East 435 501 33,000 -1,380 Descending Boston Center
07:52PM 42.6314 -75.1211 83° East 424 488 31,600 -1,500 Descending Boston Center
07:53PM 42.6475 -74.9581 82° East 424 488 30,100 -1,320 Descending Boston Center
07:54PM 42.6636 -74.7950 82° East 424 488 29,000 -600 Descending Boston Center
07:55PM 42.6753 -74.6317 84° East 424 488 29,000  Level Boston Center
07:56PM 42.6889 -74.4625 84° East 429 494 29,000  Level Boston Center
07:57PM 42.7061 -74.2992 82° East 429 494 29,000  Level Boston Center
07:58PM 42.7214 -74.1300 83° East 440 506 29,000 -300 Level Boston Center
07:59PM 42.7319 -73.9636 85° East 440 506 28,400 -600 Descending Boston Center
08:00PM 42.7444 -73.7972 84° East 440 506 27,800 -660 Descending Boston Center
08:01PM 42.7569 -73.6278 84° East 440 506 27,100 -600 Descending Boston Center
08:02PM 42.7603 -73.4781 88° East 440 506 26,600 -600 Descending Boston Center
08:03PM 42.7681 -73.3056 86° East 445 512 26,000 -600 Descending Boston Center
08:04PM 42.7733 -73.1303 88° East 450 518 25,400 -660 Descending Boston Center
08:05PM 42.7786 -72.9492 88° East 455 524 24,700 -720 Descending Boston Center
08:06PM 42.7875 -72.7825 86° East 456 525 24,000 -1,800 Descending Boston Center
08:07PM 42.8006 -72.6128 84° East 446 513 21,200 -3,000 Descending Boston Center
08:08PM 42.8006 -72.4825 90° East 406 467 18,100 -3,000 Descending Boston Center
08:09PM 42.8067 -72.3439 87° East 379 436 15,300 -3,060 Descending Boston Center
08:10PM 42.8108 -72.1994 88° East 353 406 12,000 -2,580 Descending Boston Center
08:11PM 42.8167 -72.0750 86° East 326 375 10,200 -1,440 Descending Boston Center
08:12PM 42.8206 -71.9703 87° East 299 344 9,200 -1,500 Descending Boston Center
08:13PM 42.7825 -71.8800 120° Southeast 259 298 7,300 -1,620 Descending Boston Center
08:14PM 42.7444 -71.7956 122° Southeast 259 298 6,000 -1,500 Descending Boston Center
08:15PM 42.7439 -71.7108 90° East 231 266 4,400 -1,020 Descending Boston Center
08:16PM 42.7747 -71.6339 61° Northeast 224 258 4,000 -720 Descending Boston Center
08:17PM 42.8264 -71.5767 39° Northeast 224 258 3,000 -1,020 Descending Boston Center
08:18PM 42.8656 -71.5281 42° Northeast 211 243 2,000 -900 Descending Boston Center
08:19PM 42.8944 -71.4936 41° Northeast 148 170 1,200 -780 Descending Boston Center
08:20PM 42.9214 -71.4561 46° Northeast 131 151 500 8,880 Descending Boston Center
08:21PM 42.9481 -71.4275 38° Northeast 131 151 19,000 9,240 Climbing Boston Center
08:22PM 42.9731 -71.3986 40° Northeast 131 151 19,000  Level Boston Center
08:23PM 42.9936 -71.3756 39° Northeast 131 151 19,000  Level Boston Center
08:24PM 43.0244 -71.3411 39° Northeast 131 151 19,000  Level Boston Center
08:26PM 42.9328 -71.4358 216° Southwest  Level Estimated
08:33PM 42.9328 -71.4358 216° Southwest  Level Estimated
08:34PM 42.9328 -71.4358 216° Southwest  Level Estimated
08:35PM 42.9328 -71.4358 216° Southwest  Level Estimated
08:36PM 42.9328 -71.4358 216° Southwest  Level Estimated
08:37PM 42.9328 -71.4358 216° Southwest  Level Estimated
08:38PM 42.9328 -71.4358 216° Southwest  Level Estimated
08:39PM 42.9328 -71.4358 216° Southwest  Level Estimated